createdAt,value
2023-03-06T00:05:01.114Z,16.00
2023-03-06T00:10:05.119Z,17.90
2023-03-06T00:15:37.700Z,18.50
2023-03-06T00:20:43.714Z,17.07
2023-03-06T00:25:55.016Z,22.57
2023-03-06T00:31:03.163Z,17.07
2023-03-06T00:36:13.184Z,18.40
2023-03-06T00:41:34.233Z,17.07
2023-03-06T00:46:46.487Z,17.83
2023-03-06T00:51:57.383Z,17.70
2023-03-06T00:57:09.401Z,16.23
2023-03-06T01:02:18.076Z,18.70
2023-03-06T01:07:38.081Z,17.73
2023-03-06T01:12:59.598Z,17.67
2023-03-06T01:18:18.368Z,18.23
2023-03-06T01:23:39.048Z,17.93
2023-03-06T01:28:47.044Z,15.93
2023-03-06T01:34:00.233Z,19.23
2023-03-06T01:39:31.605Z,23.97
2023-03-06T01:50:24.577Z,16.57
2023-03-06T01:56:07.875Z,15.53
2023-03-06T02:01:16.081Z,17.10
2023-03-06T02:06:52.323Z,24.53
2023-03-06T02:12:10.357Z,17.67
2023-03-06T02:17:36.676Z,16.63
2023-03-06T02:23:17.580Z,17.00
2023-03-06T02:28:35.137Z,17.07
2023-03-06T02:33:50.227Z,15.87
2023-03-06T02:39:12.369Z,16.30
2023-03-06T02:44:30.254Z,18.33
2023-03-06T02:49:45.832Z,13.07
2023-03-06T02:54:55.857Z,16.03
2023-03-06T03:00:03.643Z,13.43
2023-03-06T03:05:19.200Z,15.57
2023-03-06T03:21:36.378Z,11.00
2023-03-06T03:27:10.176Z,12.77
2023-03-06T03:32:46.581Z,11.03
2023-03-06T03:38:04.465Z,12.70
2023-03-06T03:43:20.565Z,12.43
2023-03-06T03:48:27.232Z,11.83
2023-03-06T03:53:42.449Z,12.23
2023-03-06T03:59:14.269Z,12.90
2023-03-06T04:16:13.131Z,15.93
2023-03-06T04:21:23.160Z,12.63
2023-03-06T04:26:40.365Z,15.10
2023-03-06T04:31:56.761Z,14.90
2023-03-06T04:37:41.500Z,15.30
2023-03-06T04:42:52.458Z,14.00
2023-03-06T04:48:12.764Z,14.67
2023-03-06T04:53:22.269Z,13.57
2023-03-06T04:58:38.987Z,17.60
2023-03-06T05:10:00.019Z,11.43
2023-03-06T05:26:41.498Z,12.00
2023-03-06T05:31:53.261Z,12.43
2023-03-06T05:37:25.902Z,15.90
2023-03-06T05:42:48.429Z,14.43
2023-03-06T05:48:02.839Z,14.77
2023-03-06T05:53:18.105Z,14.47
2023-03-06T06:04:06.724Z,14.37
2023-03-06T06:09:14.003Z,15.43
2023-03-06T06:14:19.833Z,17.43
2023-03-06T06:19:48.930Z,17.30
2023-03-06T06:25:03.394Z,14.93
2023-03-06T06:30:23.909Z,15.17
2023-03-06T06:35:44.655Z,14.20
2023-03-06T06:41:29.144Z,14.57
2023-03-06T06:47:02.724Z,14.27
2023-03-06T06:51:47.336Z,11.83
2023-03-06T06:56:54.064Z,12.43
2023-03-06T07:01:57.757Z,12.20
2023-03-06T07:07:03.727Z,11.20
2023-03-06T07:12:09.108Z,13.57
2023-03-06T07:17:16.834Z,11.83
2023-03-06T07:22:23.762Z,12.70
2023-03-06T07:27:28.605Z,12.70
2023-03-06T07:32:33.167Z,12.93
2023-03-06T07:37:41.981Z,12.10
2023-03-06T07:42:44.599Z,12.67
2023-03-06T07:47:51.395Z,16.80
2023-03-06T07:52:58.025Z,14.53
2023-03-06T07:58:01.198Z,12.93
2023-03-06T08:03:08.681Z,11.20
2023-03-06T08:08:13.914Z,13.60
2023-03-06T08:13:29.678Z,12.47
2023-03-06T08:18:31.844Z,12.90
2023-03-06T08:23:41.068Z,14.90
2023-03-06T08:28:44.478Z,15.50
2023-03-06T08:33:59.224Z,20.70
2023-03-06T08:39:09.571Z,20.17
2023-03-06T08:44:16.203Z,19.23
2023-03-06T08:49:42.601Z,16.77
2023-03-06T08:54:52.594Z,20.30
2023-03-06T09:00:00.515Z,17.53
2023-03-06T09:05:08.834Z,27.83
2023-03-06T09:10:22.680Z,18.80
2023-03-06T09:15:32.160Z,14.73
2023-03-06T09:20:41.393Z,15.20
2023-03-06T09:25:49.305Z,17.07
2023-03-06T09:30:55.315Z,14.27
2023-03-06T09:35:59.646Z,13.40
2023-03-06T09:41:26.716Z,17.43
2023-03-06T09:46:45.068Z,15.00
2023-03-06T09:51:49.405Z,15.40
2023-03-06T09:56:51.539Z,15.27
2023-03-06T10:01:56.477Z,13.87
2023-03-06T10:07:04.942Z,13.27
2023-03-06T10:12:17.382Z,11.23
2023-03-06T10:17:27.080Z,10.10
2023-03-06T10:22:44.784Z,10.83
2023-03-06T10:27:58.646Z,9.27
2023-03-06T10:33:23.315Z,11.23
2023-03-06T10:38:39.525Z,8.30
2023-03-06T10:43:58.628Z,9.30
2023-03-06T10:49:32.919Z,8.20
2023-03-06T10:54:43.158Z,8.90
2023-03-06T11:00:02.581Z,7.03
2023-03-06T11:05:20.596Z,5.87
2023-03-06T11:10:25.980Z,5.47
2023-03-06T11:15:34.484Z,6.60
2023-03-06T11:20:52.521Z,6.03
2023-03-06T11:26:04.022Z,5.33
2023-03-06T11:31:17.156Z,4.37
2023-03-06T11:36:47.896Z,3.53
2023-03-06T11:42:08.277Z,4.03
2023-03-06T11:47:20.381Z,2.70
2023-03-06T11:52:32.005Z,2.73
2023-03-06T11:58:06.311Z,2.40
2023-03-06T12:03:39.470Z,2.73
2023-03-06T12:09:42.662Z,2.53
2023-03-06T12:15:35.084Z,3.10
2023-03-06T12:21:22.053Z,4.57
2023-03-06T12:27:09.412Z,2.90
2023-03-06T12:32:35.206Z,2.60
2023-03-06T12:38:22.118Z,3.20
2023-03-06T12:44:11.391Z,4.30
2023-03-06T12:49:31.854Z,5.70
2023-03-06T12:54:46.742Z,5.13
2023-03-06T12:59:51.480Z,7.03
2023-03-06T13:05:14.747Z,5.73
2023-03-06T13:10:25.782Z,5.80
2023-03-06T13:15:40.031Z,5.17
2023-03-06T13:20:47.507Z,5.70
2023-03-06T13:25:53.850Z,6.80
2023-03-06T13:31:08.897Z,4.10
2023-03-06T13:36:43.421Z,4.30
2023-03-06T13:42:01.512Z,5.70
2023-03-06T13:47:09.180Z,3.80
2023-03-06T13:52:20.888Z,3.37
2023-03-06T13:57:42.648Z,2.60
2023-03-06T14:03:29.109Z,3.87
2023-03-06T14:08:47.444Z,3.80
2023-03-06T14:13:54.920Z,3.57
2023-03-06T14:19:00.536Z,2.90
2023-03-06T14:24:04.369Z,5.23
2023-03-06T14:29:25.909Z,3.47
2023-03-06T14:34:42.577Z,4.27
2023-03-06T14:40:04.770Z,2.63
2023-03-06T14:45:21.999Z,4.60
2023-03-06T14:50:35.404Z,3.50
2023-03-06T14:55:48.523Z,6.00
2023-03-06T15:00:58.885Z,4.37
2023-03-06T15:06:23.598Z,5.47
2023-03-06T15:12:03.460Z,4.97
2023-03-06T15:17:18.538Z,3.90
2023-03-06T15:22:40.359Z,6.50
2023-03-06T15:28:09.270Z,3.40
2023-03-06T15:33:27.205Z,4.50
2023-03-06T15:38:43.978Z,3.83
2023-03-06T15:43:46.923Z,4.07
2023-03-06T15:49:04.750Z,3.87
2023-03-06T15:54:19.709Z,3.80
2023-03-06T15:59:35.682Z,4.07
2023-03-06T16:04:37.668Z,5.30
2023-03-06T16:09:43.693Z,4.23
2023-03-06T16:14:56.246Z,4.60
2023-03-06T16:20:01.561Z,7.17
2023-03-06T16:25:11.829Z,5.10
2023-03-06T16:30:21.172Z,5.57
2023-03-06T16:35:23.212Z,6.37
2023-03-06T16:40:32.592Z,4.80
2023-03-06T16:45:46.218Z,6.10
2023-03-06T16:50:48.340Z,7.00
2023-03-06T16:55:54.056Z,7.03
2023-03-06T17:00:58.224Z,5.83
2023-03-06T17:17:22.099Z,10.07
2023-03-06T17:22:27.463Z,10.00
2023-03-06T17:27:44.701Z,12.03
2023-03-06T17:32:52.420Z,6.47
2023-03-06T17:39:09.106Z,5.30
2023-03-06T17:44:58.930Z,6.37
2023-03-06T17:50:27.947Z,7.77
2023-03-06T17:55:35.618Z,7.70
2023-03-06T18:00:49.887Z,7.77
2023-03-06T18:11:49.913Z,7.17
2023-03-06T18:17:08.530Z,12.63
2023-03-06T18:27:31.769Z,8.17
2023-03-06T18:45:34.239Z,10.53
2023-03-06T18:50:45.293Z,11.60
2023-03-06T19:29:38.641Z,23.70
2023-03-06T19:41:23.264Z,23.23
2023-03-06T19:52:54.747Z,26.70
2023-03-06T20:17:09.389Z,26.27
2023-03-06T20:22:13.952Z,32.47
2023-03-06T20:46:33.253Z,29.03
2023-03-06T20:52:36.205Z,26.57
2023-03-06T21:17:00.455Z,31.83
2023-03-06T21:29:12.514Z,27.03
2023-03-06T22:01:32.083Z,26.63
2023-03-06T22:06:44.311Z,25.57
2023-03-06T22:11:51.995Z,43.37
2023-03-06T22:17:02.465Z,27.83
2023-03-06T22:22:08.752Z,33.87
2023-03-06T22:27:53.024Z,24.57
2023-03-06T22:33:06.996Z,22.07
2023-03-06T22:38:21.947Z,22.67
2023-03-06T22:43:36.024Z,19.87
2023-03-06T22:49:23.019Z,19.87
2023-03-06T22:54:27.575Z,21.70
2023-03-06T22:59:31.897Z,21.93
2023-03-06T23:04:50.325Z,22.63
2023-03-06T23:09:54.665Z,21.43
2023-03-06T23:15:02.863Z,24.20
2023-03-06T23:20:15.872Z,20.83
2023-03-06T23:25:20.853Z,24.83
2023-03-06T23:30:32.218Z,21.17
2023-03-06T23:35:50.570Z,23.10
2023-03-06T23:41:32.186Z,20.33
2023-03-06T23:46:37.182Z,21.40
2023-03-06T23:51:47.234Z,22.00
2023-03-06T23:57:04.168Z,21.60
